Time;durP1;ratioP1;P1;durP2;ratioP2;P2;SDS_P1;SDS_P2;PMS_P1;PMS_P2;Temp;Humidity;BMP_temperature;BMP_pressure;BME280_temperature;BME280_humidity;BME280_pressure;Samples;Min_cycle;Max_cycle;Signal;HPM_P1;HPM_P2
2023/07/14 00:01:26;;;;;;;3.33;3.03;;;21.60;59.30;;;;;;5058272;28;20165;-83
2023/07/14 00:03:52;;;;;;;3.65;3.35;;;21.70;59.20;;;;;;5076023;28;20636;-85
2023/07/14 00:06:18;;;;;;;3.10;2.90;;;21.60;59.30;;;;;;5075120;28;20199;-86
2023/07/14 00:08:45;;;;;;;3.30;3.00;;;21.60;59.20;;;;;;5075879;28;20651;-84
2023/07/14 00:11:16;;;;;;;3.20;2.90;;;21.60;59.30;;;;;;5058165;28;20681;-83
2023/07/14 00:13:42;;;;;;;3.28;2.97;;;21.60;59.30;;;;;;5025110;28;20181;-82
2023/07/14 00:16:18;;;;;;;2.90;2.70;;;21.60;59.30;;;;;;5057855;28;20169;-81
2023/07/14 00:18:44;;;;;;;3.60;3.30;;;21.60;59.30;;;;;;5074604;28;20173;-85
2023/07/14 00:21:15;;;;;;;3.30;3.00;;;21.60;59.90;;;;;;5075831;28;20211;-86
2023/07/14 00:23:41;;;;;;;3.42;3.13;;;21.60;59.20;;;;;;5075712;28;20181;-83
2023/07/14 00:26:16;;;;;;;3.15;2.88;;;21.60;59.30;;;;;;5074532;28;20154;-85
2023/07/14 00:28:42;;;;;;;3.50;3.20;;;21.60;59.30;;;;;;5076035;28;20156;-84
2023/07/14 00:31:14;;;;;;;3.40;3.10;;;21.60;59.30;;;;;;5075657;28;20190;-83
2023/07/14 00:33:42;;;;;;;3.42;3.13;;;21.60;59.30;;;;;;5007875;28;20181;-84
2023/07/14 00:36:12;;;;;;;3.35;3.05;;;21.60;59.30;;;;;;5057604;28;20173;-83
2023/07/14 00:38:42;;;;;;;3.72;3.42;;;21.60;59.30;;;;;;5023907;28;20289;-84
2023/07/14 00:41:21;;;;;;;3.50;3.20;;;21.60;59.30;;;;;;5024153;28;20185;-87
2023/07/14 00:43:51;;;;;;;3.53;3.00;;;21.60;59.30;;;;;;5074427;28;20268;-82
2023/07/14 00:46:26;;;;;;;3.45;3.15;;;21.60;59.30;;;;;;5007639;28;20205;-84
2023/07/14 00:48:53;;;;;;;3.47;3.17;;;21.60;59.40;;;;;;5057271;28;20262;-87
2023/07/14 00:51:19;;;;;;;3.30;3.00;;;21.60;59.30;;;;;;5074241;28;20153;-86
2023/07/14 00:53:46;;;;;;;3.40;3.10;;;21.60;59.40;;;;;;5073993;28;20146;-82
2023/07/14 00:56:38;;;;;;;3.40;3.10;;;21.60;59.30;;;;;;5073930;28;20169;-83
2023/07/14 00:59:12;;;;;;;3.40;3.10;;;21.50;59.30;;;;;;5073973;28;20160;-83
2023/07/14 01:02:16;;;;;;;3.30;3.00;;;21.60;59.30;;;;;;5057669;28;20582;-82
2023/07/14 01:04:45;;;;;;;3.10;2.90;;;21.60;59.30;;;;;;5075084;28;20545;-83
2023/07/14 01:07:11;;;;;;;3.22;2.92;;;21.60;59.40;;;;;;5074825;28;20241;-81
2023/07/14 01:09:37;;;;;;;3.67;3.38;;;21.60;59.40;;;;;;5074857;28;20165;-86
2023/07/14 01:12:04;;;;;;;3.45;3.15;;;21.60;59.40;;;;;;5073694;28;20727;-88
2023/07/14 01:14:32;;;;;;;3.25;2.95;;;21.50;59.40;;;;;;5075105;28;20154;-85
2023/07/14 01:16:58;;;;;;;3.50;3.20;;;21.60;59.40;;;;;;5074768;28;20154;-83
2023/07/14 01:19:41;;;;;;;3.50;3.20;;;21.60;59.40;;;;;;5073542;28;20154;-86
2023/07/14 01:22:15;;;;;;;3.60;3.30;;;21.60;59.40;;;;;;5074925;28;20240;-85
2023/07/14 01:24:55;;;;;;;3.15;2.85;;;21.60;59.40;;;;;;5074546;28;20177;-84
2023/07/14 01:27:26;;;;;;;2.97;2.78;;;21.60;59.40;;;;;;5073720;28;20172;-82
2023/07/14 01:29:53;;;;;;;3.22;2.92;;;21.60;59.40;;;;;;5039539;28;20185;-81
2023/07/14 01:32:20;;;;;;;3.03;2.75;;;21.50;59.40;;;;;;5073226;28;20219;-81
2023/07/14 01:34:46;;;;;;;3.40;3.10;;;21.60;59.50;;;;;;5056508;28;20176;-88
2023/07/14 01:37:14;;;;;;;3.28;3.00;;;21.60;59.40;;;;;;5075292;28;20154;-86
2023/07/14 01:39:40;;;;;;;3.08;2.85;;;21.50;59.40;;;;;;5076483;28;20249;-82
2023/07/14 01:42:06;;;;;;;3.30;3.00;;;21.50;59.40;;;;;;5076362;28;20184;-86
2023/07/14 01:44:33;;;;;;;3.45;3.15;;;21.50;59.40;;;;;;5076226;28;20196;-84
2023/07/14 01:47:00;;;;;;;3.10;2.88;;;21.60;59.40;;;;;;5076399;28;20156;-81
2023/07/14 01:49:37;;;;;;;3.55;3.25;;;21.60;59.40;;;;;;5059619;28;20166;-84
2023/07/14 01:52:04;;;;;;;3.35;3.05;;;21.60;59.40;;;;;;5094358;28;20157;-84
2023/07/14 01:54:35;;;;;;;3.50;3.20;;;21.60;59.50;;;;;;5059439;28;20587;-84
2023/07/14 01:57:03;;;;;;;3.55;3.25;;;21.50;59.40;;;;;;5094235;28;20615;-85
2023/07/14 01:59:32;;;;;;;3.60;3.30;;;21.50;59.50;;;;;;5059420;28;20641;-82
2023/07/14 02:01:59;;;;;;;3.30;3.00;;;21.60;59.60;;;;;;5094119;28;20259;-81
2023/07/14 02:04:27;;;;;;;3.20;2.90;;;21.50;59.50;;;;;;5076196;28;20234;-85
2023/07/14 02:06:56;;;;;;;3.45;3.15;;;21.50;59.60;;;;;;5075956;28;20149;-82
2023/07/14 02:09:23;;;;;;;3.15;2.88;;;21.50;59.50;;;;;;5094145;28;20231;-84
2023/07/14 02:11:52;;;;;;;3.50;3.20;;;21.50;59.50;;;;;;5075555;28;20676;-88
2023/07/14 02:14:18;;;;;;;3.28;3.00;;;21.50;59.50;;;;;;5093863;28;20160;-83
2023/07/14 02:16:46;;;;;;;3.30;3.05;;;21.50;59.50;;;;;;5059059;28;20164;-84
2023/07/14 02:19:20;;;;;;;3.22;2.92;;;21.50;59.50;;;;;;5075803;28;20239;-87
2023/07/14 02:21:46;;;;;;;3.38;3.08;;;21.60;59.60;;;;;;5076110;28;20164;-84
2023/07/14 02:24:18;;;;;;;3.30;3.00;;;21.50;59.60;;;;;;5075696;28;20314;-83
2023/07/14 02:26:49;;;;;;;3.20;2.90;;;21.50;59.50;;;;;;5075967;28;20150;-87
2023/07/14 02:29:15;;;;;;;3.03;2.83;;;21.50;59.50;;;;;;5025987;28;20191;-84
2023/07/14 02:31:58;;;;;;;3.33;3.03;;;21.60;59.60;;;;;;5075583;28;20153;-83
2023/07/14 02:34:32;;;;;;;3.60;3.30;;;21.50;59.50;;;;;;5059202;28;20161;-84
2023/07/14 02:36:59;;;;;;;3.50;3.20;;;21.50;59.60;;;;;;5009304;28;20199;-82
2023/07/14 02:39:26;;;;;;;3.05;2.85;;;21.50;59.60;;;;;;5059030;28;20196;-83
2023/07/14 02:41:55;;;;;;;3.70;3.40;;;21.40;59.60;;;;;;5059324;28;20194;-87
2023/07/14 02:44:22;;;;;;;3.40;3.10;;;21.40;59.60;;;;;;5075933;28;20184;-83
2023/07/14 02:46:53;;;;;;;3.55;3.25;;;21.50;59.70;;;;;;5093754;28;20163;-83
2023/07/14 02:49:23;;;;;;;3.13;2.88;;;21.50;59.60;;;;;;5058616;28;20160;-83
2023/07/14 02:51:49;;;;;;;3.20;2.90;;;21.50;59.60;;;;;;5025185;28;20541;-83
2023/07/14 02:54:15;;;;;;;3.55;3.25;;;21.50;59.60;;;;;;5093468;28;20172;-88
2023/07/14 02:56:42;;;;;;;3.10;2.90;;;21.50;59.60;;;;;;5075626;28;20202;-83
2023/07/14 02:59:10;;;;;;;3.40;3.10;;;21.40;59.60;;;;;;5075287;28;20157;-84
2023/07/14 03:01:36;;;;;;;3.33;3.03;;;21.50;59.70;;;;;;5093423;28;20153;-85
2023/07/14 03:04:02;;;;;;;3.20;2.90;;;21.40;59.70;;;;;;5075456;28;20233;-81
2023/07/14 03:06:28;;;;;;;3.42;3.13;;;21.50;59.70;;;;;;5093264;28;20153;-83
2023/07/14 03:08:54;;;;;;;3.30;3.00;;;21.50;59.70;;;;;;5093372;28;20149;-82
2023/07/14 03:11:20;;;;;;;3.30;3.00;;;21.50;59.80;;;;;;5093148;28;20156;-81
2023/07/14 03:13:46;;;;;;;3.22;2.97;;;21.50;59.70;;;;;;5058429;28;20169;-83
2023/07/14 03:16:16;;;;;;;3.17;2.90;;;21.50;59.70;;;;;;5058246;28;20222;-85
2023/07/14 03:18:47;;;;;;;3.10;2.90;;;21.50;59.60;;;;;;5008399;28;20214;-83
2023/07/14 03:21:14;;;;;;;3.00;2.80;;;21.40;59.70;;;;;;5041972;28;20193;-84
2023/07/14 03:23:39;;;;;;;3.03;2.83;;;21.50;59.70;;;;;;5096306;28;20209;-88
2023/07/14 03:26:07;;;;;;;3.35;3.05;;;21.40;59.70;;;;;;5079248;28;20156;-81
2023/07/14 03:28:33;;;;;;;3.40;3.10;;;21.50;59.70;;;;;;5062208;28;20539;-87
2023/07/14 03:31:01;;;;;;;3.22;2.92;;;21.50;59.80;;;;;;5062176;28;20164;-84
2023/07/14 03:33:27;;;;;;;3.30;3.00;;;21.50;59.70;;;;;;5096989;28;20160;-86
2023/07/14 03:35:54;;;;;;;3.30;3.00;;;21.50;59.70;;;;;;5062071;28;20627;-87
2023/07/14 03:38:19;;;;;;;3.13;2.90;;;21.50;59.60;;;;;;5096634;28;20228;-83
2023/07/14 03:40:45;;;;;;;3.30;3.00;;;21.50;59.60;;;;;;5078847;28;20692;-87
2023/07/14 03:43:11;;;;;;;3.30;3.00;;;21.50;59.60;;;;;;5096973;28;20704;-85
2023/07/14 03:45:37;;;;;;;3.30;3.00;;;21.50;59.60;;;;;;5096717;28;20162;-83
2023/07/14 03:48:03;;;;;;;3.42;3.13;;;21.50;59.60;;;;;;5062192;28;20654;-84
2023/07/14 03:50:34;;;;;;;3.80;3.28;;;21.50;59.60;;;;;;5078523;28;20171;-84
2023/07/14 03:53:00;;;;;;;3.40;3.10;;;21.60;60.20;;;;;;5028296;28;20195;-84
2023/07/14 03:55:25;;;;;;;3.50;3.20;;;21.60;59.50;;;;;;5061870;28;20177;-83
2023/07/14 03:57:51;;;;;;;3.40;3.10;;;21.50;59.40;;;;;;5078413;28;20176;-85
2023/07/14 04:00:18;;;;;;;3.30;3.05;;;21.60;59.40;;;;;;5061884;28;20200;-82
2023/07/14 04:02:44;;;;;;;3.00;2.80;;;21.60;59.40;;;;;;5078263;28;20184;-82
2023/07/14 04:05:14;;;;;;;3.20;2.90;;;21.60;59.20;;;;;;5061673;28;20169;-84
2023/07/14 04:07:45;;;;;;;3.10;2.80;;;21.60;59.30;;;;;;5011525;28;20271;-82
2023/07/14 04:10:11;;;;;;;3.33;3.03;;;21.60;59.30;;;;;;5011581;28;20204;-83
2023/07/14 04:12:37;;;;;;;2.83;2.63;;;21.70;59.30;;;;;;5096184;28;20153;-83
2023/07/14 04:15:04;;;;;;;3.03;2.80;;;21.70;59.00;;;;;;5078091;28;20168;-85
2023/07/14 04:17:30;;;;;;;3.25;2.95;;;21.80;59.00;;;;;;5077975;28;20736;-85
2023/07/14 04:19:56;;;;;;;2.90;2.70;;;21.70;59.70;;;;;;5078668;28;20523;-83
2023/07/14 04:22:22;;;;;;;3.20;2.90;;;21.70;59.70;;;;;;5077935;28;20149;-83
2023/07/14 04:24:48;;;;;;;3.30;3.00;;;21.70;59.10;;;;;;5060957;28;20195;-86
2023/07/14 04:27:18;;;;;;;3.03;2.80;;;21.80;59.10;;;;;;5077790;28;20190;-84
2023/07/14 04:29:48;;;;;;;3.30;2.92;;;21.80;59.00;;;;;;5044034;28;20263;-86
2023/07/14 04:32:14;;;;;;;3.08;2.78;;;21.80;59.00;;;;;;5027393;28;20635;-81
2023/07/14 04:34:41;;;;;;;3.20;2.92;;;21.70;58.80;;;;;;5095040;28;20157;-85
2023/07/14 04:37:07;;;;;;;3.30;3.00;;;21.80;58.90;;;;;;5060700;28;20172;-82
2023/07/14 04:39:33;;;;;;;3.40;2.97;;;21.80;58.90;;;;;;5044482;28;20624;-83
2023/07/14 04:41:59;;;;;;;3.17;2.97;;;21.80;58.90;;;;;;5077668;28;20163;-86
2023/07/14 04:44:25;;;;;;;3.33;3.03;;;21.80;58.80;;;;;;5095557;28;20267;-83
2023/07/14 04:46:51;;;;;;;3.30;3.00;;;21.80;58.70;;;;;;5077424;28;20205;-85
2023/07/14 04:49:17;;;;;;;3.72;3.00;;;21.90;58.60;;;;;;5095392;28;20658;-85
2023/07/14 04:51:43;;;;;;;3.10;2.88;;;21.90;58.70;;;;;;5060664;28;20619;-83
2023/07/14 04:54:09;;;;;;;3.50;3.20;;;21.90;58.60;;;;;;5077668;28;20603;-82
2023/07/14 04:56:36;;;;;;;3.15;2.92;;;21.80;58.70;;;;;;5077237;28;20218;-83
2023/07/14 04:59:03;;;;;;;2.80;2.60;;;21.80;58.70;;;;;;5077327;28;20180;-84
2023/07/14 05:01:30;;;;;;;3.00;2.80;;;21.90;58.70;;;;;;5095406;28;20145;-81
2023/07/14 05:03:56;;;;;;;3.10;2.90;;;21.90;58.70;;;;;;5077209;28;20176;-86
2023/07/14 05:06:22;;;;;;;3.40;3.10;;;21.80;58.70;;;;;;5077288;28;20153;-82
2023/07/14 05:08:48;;;;;;;3.17;2.90;;;21.90;58.70;;;;;;5060239;28;20175;-85
2023/07/14 05:11:15;;;;;;;3.10;2.90;;;21.90;58.50;;;;;;5095172;28;20153;-85
2023/07/14 05:13:40;;;;;;;3.53;3.22;;;22.00;58.30;;;;;;5076983;28;20214;-82
2023/07/14 05:16:07;;;;;;;3.03;2.83;;;22.00;58.20;;;;;;5076898;28;20157;-82
2023/07/14 05:18:33;;;;;;;3.08;2.78;;;22.10;58.20;;;;;;5077165;28;20199;-86
2023/07/14 05:21:00;;;;;;;3.05;2.85;;;22.10;58.20;;;;;;5094921;28;20192;-81
2023/07/14 05:23:27;;;;;;;3.40;3.10;;;22.10;58.20;;;;;;5077034;28;20565;-83
2023/07/14 05:25:53;;;;;;;3.25;2.95;;;22.10;58.20;;;;;;5060197;28;20256;-81
2023/07/14 05:28:19;;;;;;;3.30;3.00;;;22.10;58.20;;;;;;5060192;28;20244;-82
2023/07/14 05:30:45;;;;;;;3.15;2.90;;;22.10;58.10;;;;;;5059860;28;20176;-84
2023/07/14 05:33:12;;;;;;;3.30;3.00;;;22.10;58.20;;;;;;5076678;28;20164;-83
2023/07/14 05:35:39;;;;;;;3.15;2.88;;;22.10;58.10;;;;;;5094877;28;20198;-83
2023/07/14 05:38:05;;;;;;;3.13;2.83;;;22.20;58.00;;;;;;5094576;28;20311;-85
2023/07/14 05:40:31;;;;;;;3.38;3.03;;;22.10;58.00;;;;;;5076579;28;20199;-79
2023/07/14 05:42:58;;;;;;;3.00;2.80;;;22.00;58.40;;;;;;5059543;28;20173;-84
2023/07/14 05:45:24;;;;;;;3.40;3.10;;;21.90;58.70;;;;;;5059893;28;20241;-84
2023/07/14 05:47:50;;;;;;;2.95;2.70;;;21.80;58.70;;;;;;5094297;28;20210;-83
2023/07/14 05:50:16;;;;;;;2.90;2.53;;;21.80;59.10;;;;;;5076216;28;20611;-81
2023/07/14 05:52:43;;;;;;;3.00;2.70;;;21.90;59.20;;;;;;5076705;28;20167;-82
2023/07/14 05:55:09;;;;;;;2.92;2.72;;;21.90;59.00;;;;;;5076215;28;20149;-85
2023/07/14 05:57:36;;;;;;;3.10;2.80;;;21.90;59.10;;;;;;5059447;28;20169;-83
2023/07/14 06:00:06;;;;;;;3.00;2.80;;;21.80;59.10;;;;;;5076419;28;20148;-83
2023/07/14 06:02:32;;;;;;;3.03;2.72;;;21.90;59.10;;;;;;5094085;28;20156;-82
2023/07/14 06:05:00;;;;;;;2.90;2.70;;;21.90;59.10;;;;;;5093957;28;20184;-83
2023/07/14 06:07:26;;;;;;;2.80;2.60;;;21.80;59.20;;;;;;5094194;28;20179;-84
2023/07/14 06:09:52;;;;;;;3.05;2.83;;;21.90;59.20;;;;;;5075962;28;20199;-85
2023/07/14 06:12:18;;;;;;;3.33;3.03;;;21.90;59.00;;;;;;5059496;28;20165;-82
2023/07/14 06:14:44;;;;;;;2.85;2.65;;;21.80;59.20;;;;;;5059036;28;20195;-85
2023/07/14 06:17:10;;;;;;;2.90;2.70;;;21.90;59.10;;;;;;5059175;28;20173;-85
2023/07/14 06:19:37;;;;;;;3.00;2.70;;;21.90;59.10;;;;;;5075852;28;20156;-86
2023/07/14 06:22:04;;;;;;;2.50;2.30;;;21.90;59.20;;;;;;5076114;28;20278;-83
2023/07/14 06:24:30;;;;;;;3.10;2.80;;;22.00;59.20;;;;;;5076393;28;20208;-83
2023/07/14 06:26:56;;;;;;;2.80;2.60;;;21.90;59.20;;;;;;5093723;28;20228;-85
2023/07/14 06:29:26;;;;;;;3.20;2.90;;;21.90;59.20;;;;;;5075491;28;20172;-84
2023/07/14 06:31:52;;;;;;;2.80;2.60;;;21.90;59.20;;;;;;5041771;28;20176;-82
2023/07/14 06:34:18;;;;;;;2.83;2.60;;;21.80;59.30;;;;;;5075503;28;20214;-87
2023/07/14 06:36:44;;;;;;;3.00;2.67;;;21.80;59.30;;;;;;5093500;28;20157;-83
2023/07/14 06:39:12;;;;;;;2.85;2.65;;;21.90;59.30;;;;;;5094085;28;20662;-84
2023/07/14 06:41:37;;;;;;;2.60;2.40;;;21.90;59.30;;;;;;5093494;28;20160;-84
2023/07/14 06:44:04;;;;;;;2.70;2.50;;;22.00;59.30;;;;;;5058509;28;20196;-83
2023/07/14 06:46:30;;;;;;;2.80;2.58;;;21.90;59.30;;;;;;5075901;28;20168;-84
2023/07/14 06:48:57;;;;;;;3.00;2.70;;;21.90;59.40;;;;;;5058891;28;20218;-81
2023/07/14 06:51:24;;;;;;;2.70;2.50;;;21.80;59.60;;;;;;5075734;28;20169;-83
2023/07/14 06:53:50;;;;;;;2.40;2.20;;;21.80;59.70;;;;;;5075304;28;20168;-84
2023/07/14 06:56:16;;;;;;;2.55;2.35;;;21.80;59.70;;;;;;5075332;28;20156;-81
2023/07/14 06:58:43;;;;;;;2.45;2.25;;;21.80;59.70;;;;;;5058095;28;20165;-85
2023/07/14 07:01:09;;;;;;;2.70;2.50;;;21.80;59.70;;;;;;5058815;28;20169;-83
2023/07/14 07:03:35;;;;;;;2.47;2.28;;;21.80;59.70;;;;;;5075187;28;20262;-81
2023/07/14 07:06:01;;;;;;;2.80;2.60;;;21.90;59.80;;;;;;5075185;28;20153;-84
2023/07/14 07:08:27;;;;;;;2.63;2.42;;;21.80;59.80;;;;;;5058786;28;20196;-83
2023/07/14 07:10:53;;;;;;;2.60;2.40;;;21.80;60.20;;;;;;5077165;28;20160;-87
2023/07/14 07:13:19;;;;;;;2.70;2.50;;;21.60;60.20;;;;;;5076643;28;20184;-84
2023/07/14 07:15:45;;;;;;;2.80;2.60;;;21.80;60.00;;;;;;5075262;28;20571;-83
2023/07/14 07:18:11;;;;;;;2.55;2.35;;;21.80;60.20;;;;;;5093232;28;20243;-84
2023/07/14 07:20:38;;;;;;;2.65;2.45;;;21.80;60.10;;;;;;5058284;28;20208;-86
2023/07/14 07:23:08;;;;;;;2.70;2.50;;;21.70;60.10;;;;;;5059181;28;20195;-84
2023/07/14 07:25:34;;;;;;;2.65;2.45;;;21.80;60.20;;;;;;5028424;28;20212;-82
2023/07/14 07:28:00;;;;;;;2.80;2.60;;;21.80;60.10;;;;;;5077633;28;20167;-84
2023/07/14 07:30:26;;;;;;;2.50;2.30;;;21.80;60.20;;;;;;5093077;28;20190;-85
2023/07/14 07:32:56;;;;;;;2.80;2.60;;;21.80;60.30;;;;;;5092973;28;20173;-82
2023/07/14 07:35:22;;;;;;;2.60;2.40;;;21.80;60.30;;;;;;5024745;28;20207;-86
2023/07/14 07:37:47;;;;;;;2.80;2.60;;;21.80;60.30;;;;;;5092756;28;20690;-85
2023/07/14 07:40:13;;;;;;;2.70;2.50;;;21.70;60.20;;;;;;5058197;28;20165;-83
2023/07/14 07:42:40;;;;;;;2.72;2.47;;;21.80;60.30;;;;;;5074790;28;20168;-84
2023/07/14 07:45:07;;;;;;;2.90;2.70;;;21.80;60.30;;;;;;5092916;28;20199;-85
2023/07/14 07:47:33;;;;;;;2.78;2.58;;;21.80;60.30;;;;;;5058028;28;20609;-83
2023/07/14 07:49:59;;;;;;;2.90;2.60;;;21.80;60.50;;;;;;5074777;28;20160;-88
2023/07/14 07:52:25;;;;;;;2.67;2.47;;;21.70;60.70;;;;;;5092967;28;20149;-83
2023/07/14 07:54:51;;;;;;;2.97;2.75;;;21.70;60.70;;;;;;5057911;28;20251;-84
2023/07/14 07:57:17;;;;;;;2.70;2.50;;;21.70;60.70;;;;;;5058046;28;20192;-87
2023/07/14 07:59:43;;;;;;;2.85;2.60;;;21.70;60.60;;;;;;5074768;28;20677;-88
2023/07/14 08:02:12;;;;;;;2.72;2.53;;;21.70;60.70;;;;;;5092632;28;20155;-84
2023/07/14 08:04:38;;;;;;;2.53;2.33;;;21.70;60.70;;;;;;5092921;28;20260;-88
2023/07/14 08:07:10;;;;;;;2.95;2.75;;;21.70;60.70;;;;;;5092704;28;20168;-85
2023/07/14 08:09:36;;;;;;;3.20;2.90;;;21.70;60.70;;;;;;5075771;28;20594;-85
2023/07/14 08:12:02;;;;;;;2.80;2.60;;;21.60;61.00;;;;;;5078178;28;20172;-85
2023/07/14 08:14:28;;;;;;;3.13;2.83;;;21.60;60.90;;;;;;5061429;28;20168;-88
2023/07/14 08:16:54;;;;;;;3.00;2.75;;;21.70;61.00;;;;;;5078110;28;20152;-88
2023/07/14 08:19:20;;;;;;;3.10;2.78;;;21.70;61.20;;;;;;5061282;28;20187;-82
2023/07/14 08:21:46;;;;;;;3.17;2.88;;;21.70;61.00;;;;;;5077974;28;20176;-85
2023/07/14 08:24:12;;;;;;;3.17;2.88;;;21.60;61.20;;;;;;5061109;28;20189;-84
2023/07/14 08:26:38;;;;;;;2.70;2.50;;;21.70;61.20;;;;;;5077927;28;20707;-83
2023/07/14 08:29:05;;;;;;;2.42;2.22;;;21.70;61.00;;;;;;5060980;28;20164;-85
2023/07/14 08:31:31;;;;;;;2.75;2.55;;;21.70;61.10;;;;;;5096142;28;20639;-83
2023/07/14 08:33:57;;;;;;;2.90;2.70;;;21.80;60.70;;;;;;5060826;28;20256;-87
2023/07/14 08:36:27;;;;;;;3.00;2.70;;;21.80;60.70;;;;;;5077776;28;20156;-87
2023/07/14 08:38:57;;;;;;;2.65;2.40;;;21.80;60.80;;;;;;5043871;28;20251;-82
2023/07/14 08:41:33;;;;;;;3.08;2.65;;;21.80;60.60;;;;;;5011235;28;20279;-85
2023/07/14 08:44:37;;;;;;;3.00;2.78;;;21.80;60.60;;;;;;5078016;28;20654;-83
2023/07/14 08:47:23;;;;;;;3.10;2.80;;;21.80;60.70;;;;;;5080533;28;20156;-82
2023/07/14 08:49:56;;;;;;;2.70;2.50;;;21.80;60.70;;;;;;5032464;28;20184;-83
2023/07/14 08:52:32;;;;;;;2.80;2.60;;;21.70;60.80;;;;;;5060482;28;20531;-87
2023/07/14 08:55:15;;;;;;;2.60;2.40;;;21.80;60.80;;;;;;5095686;28;20183;-84
2023/07/14 08:57:52;;;;;;;3.05;2.70;;;21.90;60.50;;;;;;5077392;28;20301;-83
2023/07/14 09:00:28;;;;;;;2.92;2.63;;;21.90;60.40;;;;;;5077580;28;20156;-85
2023/07/14 09:03:10;;;;;;;2.50;2.30;;;21.90;60.30;;;;;;5077250;28;20555;-86
2023/07/14 09:05:49;;;;;;;3.00;2.70;;;21.90;60.60;;;;;;5095134;28;20515;-83
2023/07/14 09:08:15;;;;;;;3.20;2.90;;;22.00;60.50;;;;;;5028609;28;20181;-86
2023/07/14 09:11:05;;;;;;;2.80;2.60;;;21.90;60.50;;;;;;5095149;28;20623;-88
2023/07/14 09:14:11;;;;;;;2.92;2.72;;;21.80;60.70;;;;;;5063566;28;20226;-85
2023/07/14 09:17:07;;;;;;;2.53;2.33;;;21.90;60.80;;;;;;5059539;28;20494;-85
2023/07/14 09:20:07;;;;;;;2.92;2.72;;;21.90;60.50;;;;;;5003057;28;20184;-86
2023/07/14 09:22:57;;;;;;;2.67;2.47;;;22.00;60.50;;;;;;5003616;28;20192;-84
2023/07/14 09:25:56;;;;;;;2.70;2.50;;;21.90;60.40;;;;;;5015152;28;20218;-86
2023/07/14 09:28:36;;;;;;;2.58;2.38;;;21.90;60.50;;;;;;5076671;28;20165;-83
2023/07/14 09:31:18;;;;;;;3.00;2.70;;;21.90;60.70;;;;;;5027282;28;20249;-83
2023/07/14 09:33:54;;;;;;;3.00;2.70;;;22.00;60.60;;;;;;5047828;28;20183;-82
2023/07/14 09:36:24;;;;;;;3.33;3.03;;;22.00;60.50;;;;;;5043835;28;20183;-82
2023/07/14 09:38:59;;;;;;;3.25;2.80;;;22.00;60.50;;;;;;5042937;28;20221;-83
2023/07/14 09:41:29;;;;;;;2.80;2.58;;;22.00;60.40;;;;;;5010642;28;20237;-85
2023/07/14 09:43:59;;;;;;;2.80;2.53;;;22.00;60.50;;;;;;5042906;28;20299;-88
2023/07/14 09:46:36;;;;;;;3.15;2.40;;;22.00;60.20;;;;;;5026157;28;20184;-81
2023/07/14 09:49:10;;;;;;;3.08;2.78;;;22.10;60.20;;;;;;5028700;28;20187;-85
2023/07/14 09:51:56;;;;;;;2.78;2.58;;;22.00;60.20;;;;;;5010150;28;20263;-83
2023/07/14 09:54:29;;;;;;;2.70;2.50;;;22.10;60.40;;;;;;5015308;28;20184;-86
2023/07/14 09:57:03;;;;;;;2.83;2.63;;;22.10;60.20;;;;;;5042472;28;20184;-88
2023/07/14 09:59:32;;;;;;;2.40;2.20;;;22.00;60.30;;;;;;5025932;28;20241;-82
2023/07/14 10:02:02;;;;;;;2.72;2.53;;;22.10;60.10;;;;;;5042319;28;20196;-87
2023/07/14 10:04:36;;;;;;;2.78;2.58;;;22.10;60.20;;;;;;5025998;28;20239;-82
2023/07/14 10:07:37;;;;;;;2.60;2.40;;;22.10;60.50;;;;;;5026482;28;20639;-87
2023/07/14 10:10:08;;;;;;;3.00;2.70;;;21.90;60.60;;;;;;5076087;28;20539;-83
2023/07/14 10:12:41;;;;;;;2.70;2.50;;;22.00;60.70;;;;;;5042953;28;20176;-82
2023/07/14 10:15:30;;;;;;;2.70;2.50;;;21.90;60.80;;;;;;5010381;28;20305;-82
2023/07/14 10:18:04;;;;;;;2.45;2.25;;;21.90;60.70;;;;;;5042901;28;20643;-83
2023/07/14 10:20:33;;;;;;;2.97;2.60;;;21.90;60.70;;;;;;5026669;28;20188;-83
2023/07/14 10:23:01;;;;;;;2.85;2.60;;;21.90;60.80;;;;;;5042205;28;20180;-86
2023/07/14 10:25:30;;;;;;;2.70;2.50;;;22.00;60.80;;;;;;5025733;28;20184;-86
2023/07/14 10:28:10;;;;;;;2.88;2.58;;;22.00;60.60;;;;;;5009714;28;20206;-85
2023/07/14 10:30:55;;;;;;;2.75;2.50;;;22.00;60.60;;;;;;5025371;28;20172;-86
2023/07/14 10:33:33;;;;;;;2.83;2.53;;;22.10;60.70;;;;;;5095779;28;20646;-84
2023/07/14 10:36:07;;;;;;;2.47;2.28;;;22.10;60.50;;;;;;5030375;28;20283;-84
2023/07/14 10:38:40;;;;;;;2.88;2.60;;;22.00;60.60;;;;;;5029125;28;20226;-85
2023/07/14 10:41:09;;;;;;;2.80;2.60;;;22.00;60.70;;;;;;5044286;28;20188;-81
2023/07/14 10:43:44;;;;;;;2.95;2.65;;;22.00;60.90;;;;;;5026640;28;20257;-82
2023/07/14 10:46:32;;;;;;;3.00;2.72;;;22.00;60.80;;;;;;5027673;28;20191;-84
2023/07/14 10:49:05;;;;;;;3.10;2.80;;;21.90;61.00;;;;;;5043452;28;20187;-84
2023/07/14 10:51:48;;;;;;;3.05;2.70;;;22.00;60.70;;;;;;5026706;28;20176;-84
2023/07/14 10:54:19;;;;;;;2.50;2.30;;;22.10;60.70;;;;;;5046273;28;20706;-85
2023/07/14 10:56:51;;;;;;;2.83;2.55;;;22.10;60.50;;;;;;5025467;28;20639;-86
2023/07/14 10:59:39;;;;;;;2.85;2.55;;;22.10;60.30;;;;;;5042738;28;20181;-84
2023/07/14 11:02:28;;;;;;;3.17;2.88;;;22.20;60.30;;;;;;5049423;28;20536;-86
2023/07/14 11:05:00;;;;;;;2.80;2.50;;;22.20;60.40;;;;;;5043977;28;20552;-86
2023/07/14 11:07:31;;;;;;;2.60;2.40;;;22.20;60.30;;;;;;5025570;28;20185;-86
2023/07/14 11:09:59;;;;;;;2.65;2.45;;;22.20;60.40;;;;;;5009117;28;20306;-85
2023/07/14 11:12:35;;;;;;;3.00;2.70;;;22.30;60.40;;;;;;5024621;28;20575;-84
2023/07/14 11:15:21;;;;;;;3.50;2.50;;;22.20;60.20;;;;;;5027640;28;20194;-86
2023/07/14 11:18:03;;;;;;;2.63;2.42;;;22.20;60.40;;;;;;5058865;28;20172;-82
2023/07/14 11:20:37;;;;;;;3.55;2.50;;;22.20;60.30;;;;;;5059096;28;20641;-87
2023/07/14 11:23:31;;;;;;;2.63;2.42;;;22.20;60.20;;;;;;5026594;28;20184;-86
2023/07/14 11:26:14;;;;;;;3.92;2.60;;;22.20;60.10;;;;;;5033601;28;20260;-84
2023/07/14 11:28:52;;;;;;;2.60;2.40;;;22.20;60.10;;;;;;5029636;28;20650;-83
2023/07/14 11:31:23;;;;;;;2.50;2.30;;;22.20;60.30;;;;;;5042221;28;20185;-83
2023/07/14 11:34:29;;;;;;;3.08;2.78;;;22.20;60.20;;;;;;5009794;28;20184;-84
2023/07/14 11:37:29;;;;;;;3.13;2.70;;;22.20;60.20;;;;;;5044568;28;20259;-84
2023/07/14 11:40:00;;;;;;;2.78;2.53;;;22.20;60.30;;;;;;5050415;28;20212;-84
2023/07/14 11:42:30;;;;;;;2.67;2.47;;;22.30;60.00;;;;;;5025056;28;20177;-85
2023/07/14 11:44:58;;;;;;;2.72;2.45;;;22.30;59.90;;;;;;5044584;28;20650;-82
2023/07/14 11:47:28;;;;;;;2.78;2.58;;;22.20;60.10;;;;;;5097199;28;20160;-83
2023/07/14 11:49:55;;;;;;;3.00;2.70;;;22.20;60.20;;;;;;5062641;28;20173;-85
2023/07/14 11:52:24;;;;;;;2.50;2.30;;;22.20;60.30;;;;;;5063068;28;20168;-87
2023/07/14 11:55:03;;;;;;;2.90;2.60;;;22.20;60.00;;;;;;5079877;28;20239;-86
2023/07/14 11:57:29;;;;;;;2.60;2.40;;;22.30;59.90;;;;;;5079290;28;20227;-84
2023/07/14 12:00:02;;;;;;;2.30;2.10;;;22.30;59.80;;;;;;5097219;28;20149;-84
2023/07/14 12:02:48;;;;;;;2.72;2.53;;;22.40;59.70;;;;;;5078948;28;20583;-84
2023/07/14 12:05:34;;;;;;;3.20;2.45;;;22.40;59.70;;;;;;5096907;28;20200;-86
2023/07/14 12:08:20;;;;;;;2.70;2.50;;;22.30;59.70;;;;;;5061755;28;20251;-86
2023/07/14 12:10:46;;;;;;;2.60;2.33;;;22.20;59.80;;;;;;5062088;28;20196;-85
2023/07/14 12:13:33;;;;;;;2.50;2.30;;;22.30;59.80;;;;;;5062492;28;20167;-84
2023/07/14 12:16:18;;;;;;;2.72;2.53;;;22.20;59.90;;;;;;5061793;28;20172;-87
2023/07/14 12:18:59;;;;;;;2.30;2.10;;;22.20;59.90;;;;;;5078389;28;20608;-87
2023/07/14 12:21:45;;;;;;;2.63;2.42;;;22.30;59.80;;;;;;5078624;28;20152;-87
2023/07/14 12:24:16;;;;;;;2.60;2.40;;;22.30;59.70;;;;;;5014652;28;20208;-82
2023/07/14 12:26:52;;;;;;;2.40;2.20;;;22.30;59.70;;;;;;5028081;28;20268;-85
2023/07/14 12:29:23;;;;;;;2.38;2.17;;;22.30;59.60;;;;;;5061666;28;20255;-82
2023/07/14 12:31:54;;;;;;;2.58;2.38;;;22.40;59.40;;;;;;5011327;28;20183;-84
2023/07/14 12:34:23;;;;;;;3.22;2.63;;;22.40;59.50;;;;;;5027792;28;20184;-83
2023/07/14 12:36:49;;;;;;;2.90;2.60;;;22.40;59.50;;;;;;5077869;28;20153;-84
2023/07/14 12:39:16;;;;;;;2.17;2.05;;;22.30;59.40;;;;;;5074222;28;20243;-86
2023/07/14 12:41:46;;;;;;;2.45;2.25;;;22.40;59.40;;;;;;5074309;28;20169;-84
2023/07/14 12:44:25;;;;;;;2.42;2.22;;;22.30;60.30;;;;;;5074157;28;20273;-85
2023/07/14 12:46:55;;;;;;;2.70;2.50;;;22.40;59.30;;;;;;5075597;28;20211;-87
2023/07/14 12:49:42;;;;;;;3.30;2.35;;;22.30;59.30;;;;;;5023804;28;20178;-85
2023/07/14 12:52:27;;;;;;;1.90;1.80;;;22.30;59.20;;;;;;5024190;28;20177;-84
2023/07/14 12:54:57;;;;;;;2.90;2.25;;;22.40;59.20;;;;;;5073822;28;20169;-83
2023/07/14 12:57:30;;;;;;;2.38;2.17;;;22.40;59.10;;;;;;5075354;28;20264;-85
2023/07/14 12:59:56;;;;;;;2.38;2.10;;;22.40;59.00;;;;;;5007955;28;20188;-86
2023/07/14 13:02:24;;;;;;;2.22;2.05;;;22.40;59.10;;;;;;5057239;28;20636;-81
2023/07/14 13:04:51;;;;;;;2.55;2.30;;;22.40;59.10;;;;;;5075262;28;20192;-86
2023/07/14 13:07:22;;;;;;;2.45;2.25;;;22.40;59.00;;;;;;5057214;28;20164;-83